San Antonio, TX

11:09 AM CDT on August 20, 2014 (GMT -0500)
Castle Hills | Change Station
CLOSE
Current Station
Personal Weather Station
Location: San Antonio, TX
Elevation: 869 ft
Nearby Weather Stations

Elev 869 ft 29.53 °N, 98.52 °W | Updated 4 minutes ago

Scattered Clouds
Scattered Clouds
84.6 °F
Feels Like 89 °F
N
4.3
Wind Variable Wind from SE

Today
High -- | Low -- °F
--% Chance of Precip.
Yesterday
High -- | Low -- °F
Precip. -- in
7:05 AM 8:09 PM
Waning Crescent, 21% visible
Pressure 29.94 in
Visibility 10.0 miles
Clouds Scattered Clouds 3300 ft
Scattered Clouds 25000 ft
Heat Index 89 °F
Dew Point 69 °F
Humidity 60%
Rainfall 0.00 in
Snow Depth Not available.
UV 6 out of 12
Pollen 7.80 out of 12
Ozone Good
PM2.5 Moderate
Flu Activity Not available.
METAR KSAT 201551Z 18010KT 10SM SCT033 SCT250 32/22 A2999 RMK AO2 SLP136 T03170217

More Conditions Fewer Conditions

Pressure 29.94 in
Visibility 10.0 miles
Clouds Scattered Clouds 3300 ft
Scattered Clouds 25000 ft
Heat Index 89 °F
Dew Point 69 °F
Humidity 60%
Rainfall 0.00 in
Snow Depth Not available.
UV 6 out of 12
Pollen 7.80 out of 12
Ozone Good
PM2.5 Moderate
Flu Activity Not available.
METAR KSAT 201551Z 18010KT 10SM SCT033 SCT250 32/22 A2999 RMK AO2 SLP136 T03170217

More Conditions Fewer Conditions

10-Day Weather Forecast

Almanac

Astronomy

Aug. 20, 2014 Rise Set
Actual Time 7:05 AM CDT 8:09 PM CDT
Civil Twilight 6:40 AM CDT 8:34 PM CDT
Nautical Twilight 6:11 AM CDT 9:03 PM CDT
Astronomical Twilight 5:40 AM CDT 9:33 PM CDT
Moon 2:54 AM CDT 4:47 PM CDT
Length of Visible Light 13h 53m
Length of Day
13h 04m
Tomorrow will be 1m 35s shorter.
Waning Crescent, 21% of the Moon is Illuminated
Today
Waning Crescent
Aug 25
New
Sep 2
First Quarter
Sep 8
Full
Sep 15
Last Quarter

Today's Extremes

State Highs State Lows

Community

WunderPhotos

Upload Photos

1,745,677 photos uploaded!

Nearby

Air Quality

  Air Quality AQ Index Pollutant
Yesterday Moderate
PM2.5
Yesterday Good
OZONE
Current Moderate
PM2.5
Current Good
OZONE
Wednesday Good
PM10
Wednesday Good
OZONE
Thursday Good
PM10
Thursday Good
OZONE
Friday Good
PM10
Friday Good
OZONE
Saturday Good
PM10
Saturday Good
OZONE

Snow Depth

Station Depth Elevation
No new snow has been reported.

Earthquake Activity

City Distance Mag. Time & Date
No recent earthquake activity has been reported nearby.
Minimum magnitude displayed is 2.5.

Coastal Water Temperatures

Place Temperature
No Stations Reporting

Nearby Weather Stations